sensor_id;sensor_type;location;lat;lon;timestamp;P1;durP1;ratioP1;P2;durP2;ratioP2
12871;SDS011;6504;53.766;9.626;2024-03-02T07:58:13;29.37;;;23.27;;
12871;SDS011;6504;53.766;9.626;2024-03-02T08:00:41;32.13;;;23.40;;
12871;SDS011;6504;53.766;9.626;2024-03-02T08:03:10;30.30;;;23.00;;
12871;SDS011;6504;53.766;9.626;2024-03-02T08:05:38;29.03;;;24.37;;
12871;SDS011;6504;53.766;9.626;2024-03-02T08:08:06;29.37;;;23.83;;
12871;SDS011;6504;53.766;9.626;2024-03-02T08:10:34;28.43;;;22.43;;
12871;SDS011;6504;53.766;9.626;2024-03-02T08:13:03;29.00;;;22.50;;
12871;SDS011;6504;53.766;9.626;2024-03-02T08:15:32;29.87;;;23.23;;
12871;SDS011;6504;53.766;9.626;2024-03-02T08:18:00;26.60;;;22.17;;
12871;SDS011;6504;53.766;9.626;2024-03-02T08:20:28;25.57;;;21.57;;
12871;SDS011;6504;53.766;9.626;2024-03-02T08:22:58;26.50;;;21.33;;
12871;SDS011;6504;53.766;9.626;2024-03-02T08:25:26;24.37;;;19.97;;
12871;SDS011;6504;53.766;9.626;2024-03-02T08:27:54;26.07;;;19.43;;
12871;SDS011;6504;53.766;9.626;2024-03-02T08:30:22;26.97;;;21.33;;
12871;SDS011;6504;53.766;9.626;2024-03-02T08:32:51;24.63;;;20.23;;
12871;SDS011;6504;53.766;9.626;2024-03-02T08:35:19;22.63;;;19.17;;
12871;SDS011;6504;53.766;9.626;2024-03-02T08:37:48;25.43;;;20.20;;
12871;SDS011;6504;53.766;9.626;2024-03-02T08:40:17;22.60;;;18.73;;
12871;SDS011;6504;53.766;9.626;2024-03-02T08:42:45;25.50;;;20.30;;
12871;SDS011;6504;53.766;9.626;2024-03-02T08:45:14;22.53;;;18.63;;
12871;SDS011;6504;53.766;9.626;2024-03-02T08:47:43;22.07;;;19.07;;
12871;SDS011;6504;53.766;9.626;2024-03-02T08:50:12;24.50;;;19.47;;
12871;SDS011;6504;53.766;9.626;2024-03-02T08:52:40;22.27;;;18.77;;
12871;SDS011;6504;53.766;9.626;2024-03-02T08:55:09;20.27;;;18.10;;
12871;SDS011;6504;53.766;9.626;2024-03-02T08:57:38;21.57;;;18.47;;
12871;SDS011;6504;53.766;9.626;2024-03-02T09:00:08;21.03;;;18.37;;
12871;SDS011;6504;53.766;9.626;2024-03-02T09:02:37;23.47;;;18.63;;
12871;SDS011;6504;53.766;9.626;2024-03-02T09:05:06;21.53;;;17.73;;
12871;SDS011;6504;53.766;9.626;2024-03-02T09:07:36;22.30;;;18.40;;
12871;SDS011;6504;53.766;9.626;2024-03-02T09:10:05;22.27;;;18.17;;
12871;SDS011;6504;53.766;9.626;2024-03-02T09:12:34;20.60;;;18.40;;
12871;SDS011;6504;53.766;9.626;2024-03-02T09:15:02;19.97;;;17.17;;
12871;SDS011;6504;53.766;9.626;2024-03-02T09:17:32;21.10;;;18.00;;
12871;SDS011;6504;53.766;9.626;2024-03-02T09:20:01;18.27;;;16.30;;
12871;SDS011;6504;53.766;9.626;2024-03-02T09:22:30;21.17;;;16.77;;
12871;SDS011;6504;53.766;9.626;2024-03-02T09:25:00;19.77;;;16.90;;
12871;SDS011;6504;53.766;9.626;2024-03-02T09:27:28;21.13;;;16.67;;
12871;SDS011;6504;53.766;9.626;2024-03-02T09:29:56;19.27;;;16.13;;
12871;SDS011;6504;53.766;9.626;2024-03-02T09:32:24;19.57;;;15.23;;
12871;SDS011;6504;53.766;9.626;2024-03-02T09:34:52;17.70;;;15.80;;
12871;SDS011;6504;53.766;9.626;2024-03-02T09:37:22;19.50;;;16.20;;
12871;SDS011;6504;53.766;9.626;2024-03-02T09:39:50;17.57;;;15.17;;
12871;SDS011;6504;53.766;9.626;2024-03-02T09:42:20;18.00;;;15.53;;
12871;SDS011;6504;53.766;9.626;2024-03-02T09:44:50;18.37;;;15.47;;
12871;SDS011;6504;53.766;9.626;2024-03-02T09:47:18;19.93;;;15.67;;
12871;SDS011;6504;53.766;9.626;2024-03-02T09:49:46;17.70;;;15.20;;
12871;SDS011;6504;53.766;9.626;2024-03-02T09:52:14;17.07;;;15.27;;
12871;SDS011;6504;53.766;9.626;2024-03-02T09:54:43;18.23;;;15.63;;
12871;SDS011;6504;53.766;9.626;2024-03-02T09:57:11;18.57;;;15.13;;
12871;SDS011;6504;53.766;9.626;2024-03-02T09:59:41;17.87;;;14.87;;
12871;SDS011;6504;53.766;9.626;2024-03-02T10:02:09;17.97;;;14.20;;
12871;SDS011;6504;53.766;9.626;2024-03-02T10:04:37;16.67;;;14.37;;
12871;SDS011;6504;53.766;9.626;2024-03-02T10:07:12;17.13;;;14.37;;
12871;SDS011;6504;53.766;9.626;2024-03-02T10:09:41;15.53;;;13.43;;
12871;SDS011;6504;53.766;9.626;2024-03-02T10:12:11;17.33;;;14.03;;
12871;SDS011;6504;53.766;9.626;2024-03-02T10:14:42;15.20;;;13.63;;
12871;SDS011;6504;53.766;9.626;2024-03-02T10:17:11;17.73;;;13.93;;
12871;SDS011;6504;53.766;9.626;2024-03-02T10:19:41;16.27;;;13.50;;
12871;SDS011;6504;53.766;9.626;2024-03-02T10:22:09;16.00;;;12.97;;
12871;SDS011;6504;53.766;9.626;2024-03-02T10:24:38;15.27;;;12.97;;
12871;SDS011;6504;53.766;9.626;2024-03-02T10:27:08;16.40;;;13.67;;
12871;SDS011;6504;53.766;9.626;2024-03-02T10:29:37;15.73;;;13.17;;
12871;SDS011;6504;53.766;9.626;2024-03-02T10:32:11;14.37;;;12.87;;
12871;SDS011;6504;53.766;9.626;2024-03-02T10:34:39;14.37;;;12.83;;
12871;SDS011;6504;53.766;9.626;2024-03-02T10:37:08;14.47;;;12.93;;
12871;SDS011;6504;53.766;9.626;2024-03-02T10:39:38;12.93;;;11.70;;
12871;SDS011;6504;53.766;9.626;2024-03-02T10:42:07;14.73;;;13.07;;
12871;SDS011;6504;53.766;9.626;2024-03-02T10:44:36;14.37;;;12.73;;
12871;SDS011;6504;53.766;9.626;2024-03-02T10:47:04;14.80;;;13.00;;
12871;SDS011;6504;53.766;9.626;2024-03-02T10:49:34;14.60;;;13.03;;
12871;SDS011;6504;53.766;9.626;2024-03-02T10:52:03;14.43;;;12.83;;
12871;SDS011;6504;53.766;9.626;2024-03-02T10:54:31;15.47;;;13.43;;
12871;SDS011;6504;53.766;9.626;2024-03-02T10:57:04;14.00;;;12.57;;
12871;SDS011;6504;53.766;9.626;2024-03-02T10:59:36;12.27;;;10.93;;
12871;SDS011;6504;53.766;9.626;2024-03-02T11:02:06;14.13;;;11.90;;
12871;SDS011;6504;53.766;9.626;2024-03-02T11:04:39;12.63;;;11.13;;
12871;SDS011;6504;53.766;9.626;2024-03-02T11:07:09;13.97;;;12.37;;
12871;SDS011;6504;53.766;9.626;2024-03-02T11:09:39;14.40;;;12.67;;
12871;SDS011;6504;53.766;9.626;2024-03-02T11:12:09;14.10;;;12.60;;
12871;SDS011;6504;53.766;9.626;2024-03-02T11:14:44;14.23;;;11.87;;
12871;SDS011;6504;53.766;9.626;2024-03-02T11:17:13;14.80;;;13.30;;
12871;SDS011;6504;53.766;9.626;2024-03-02T11:19:44;13.37;;;11.97;;
12871;SDS011;6504;53.766;9.626;2024-03-02T11:22:13;13.70;;;12.27;;
12871;SDS011;6504;53.766;9.626;2024-03-02T11:24:47;15.70;;;12.70;;
12871;SDS011;6504;53.766;9.626;2024-03-02T11:27:23;13.13;;;11.80;;
12871;SDS011;6504;53.766;9.626;2024-03-02T11:33:25;12.23;;;10.23;;
12871;SDS011;6504;53.766;9.626;2024-03-02T11:35:57;13.67;;;10.13;;
12871;SDS011;6504;53.766;9.626;2024-03-02T11:38:32;11.47;;;9.77;;
12871;SDS011;6504;53.766;9.626;2024-03-02T11:41:01;11.07;;;9.97;;
12871;SDS011;6504;53.766;9.626;2024-03-02T11:43:33;15.20;;;10.57;;
12871;SDS011;6504;53.766;9.626;2024-03-02T11:46:06;11.17;;;9.87;;
12871;SDS011;6504;53.766;9.626;2024-03-02T11:48:35;12.77;;;10.03;;
12871;SDS011;6504;53.766;9.626;2024-03-02T11:51:05;12.57;;;10.53;;
12871;SDS011;6504;53.766;9.626;2024-03-02T11:53:34;12.40;;;9.60;;
12871;SDS011;6504;53.766;9.626;2024-03-02T11:56:06;15.40;;;9.90;;
12871;SDS011;6504;53.766;9.626;2024-03-02T11:58:35;18.00;;;9.20;;
12871;SDS011;6504;53.766;9.626;2024-03-02T12:01:04;10.70;;;9.27;;
12871;SDS011;6504;53.766;9.626;2024-03-02T12:03:32;10.50;;;9.23;;
12871;SDS011;6504;53.766;9.626;2024-03-02T12:06:02;11.23;;;8.73;;
12871;SDS011;6504;53.766;9.626;2024-03-02T12:08:33;10.43;;;8.00;;
12871;SDS011;6504;53.766;9.626;2024-03-02T12:11:03;9.67;;;8.10;;
12871;SDS011;6504;53.766;9.626;2024-03-02T12:13:33;11.17;;;8.37;;
12871;SDS011;6504;53.766;9.626;2024-03-02T12:16:01;10.80;;;8.00;;
12871;SDS011;6504;53.766;9.626;2024-03-02T12:18:30;8.27;;;7.40;;
12871;SDS011;6504;53.766;9.626;2024-03-02T12:20:58;9.90;;;7.80;;
12871;SDS011;6504;53.766;9.626;2024-03-02T12:23:26;10.90;;;8.40;;
12871;SDS011;6504;53.766;9.626;2024-03-02T12:25:56;11.13;;;8.07;;
12871;SDS011;6504;53.766;9.626;2024-03-02T12:28:24;8.73;;;7.53;;
12871;SDS011;6504;53.766;9.626;2024-03-02T12:30:53;9.60;;;8.60;;
12871;SDS011;6504;53.766;9.626;2024-03-02T12:33:21;8.77;;;7.83;;
12871;SDS011;6504;53.766;9.626;2024-03-02T12:35:50;8.30;;;7.40;;
12871;SDS011;6504;53.766;9.626;2024-03-02T12:38:18;8.63;;;7.40;;
12871;SDS011;6504;53.766;9.626;2024-03-02T12:40:47;9.17;;;7.83;;
12871;SDS011;6504;53.766;9.626;2024-03-02T12:43:17;10.13;;;7.63;;
12871;SDS011;6504;53.766;9.626;2024-03-02T12:45:45;8.37;;;7.27;;
12871;SDS011;6504;53.766;9.626;2024-03-02T12:48:14;9.87;;;8.10;;
12871;SDS011;6504;53.766;9.626;2024-03-02T12:50:42;9.47;;;7.63;;
12871;SDS011;6504;53.766;9.626;2024-03-02T12:53:14;8.07;;;6.53;;
12871;SDS011;6504;53.766;9.626;2024-03-02T12:55:43;8.40;;;7.03;;
12871;SDS011;6504;53.766;9.626;2024-03-02T12:58:18;7.70;;;7.00;;
12871;SDS011;6504;53.766;9.626;2024-03-02T13:00:47;8.57;;;7.17;;
12871;SDS011;6504;53.766;9.626;2024-03-02T13:03:17;8.20;;;7.03;;
12871;SDS011;6504;53.766;9.626;2024-03-02T13:05:50;8.40;;;7.37;;
12871;SDS011;6504;53.766;9.626;2024-03-02T13:08:19;8.40;;;6.77;;
12871;SDS011;6504;53.766;9.626;2024-03-02T13:10:47;9.77;;;7.23;;
12871;SDS011;6504;53.766;9.626;2024-03-02T13:13:16;9.37;;;7.27;;
12871;SDS011;6504;53.766;9.626;2024-03-02T13:15:45;8.13;;;6.40;;
12871;SDS011;6504;53.766;9.626;2024-03-02T13:18:13;6.90;;;5.73;;
12871;SDS011;6504;53.766;9.626;2024-03-02T13:20:41;8.50;;;6.57;;
12871;SDS011;6504;53.766;9.626;2024-03-02T13:23:09;9.63;;;7.03;;
12871;SDS011;6504;53.766;9.626;2024-03-02T13:25:37;7.43;;;6.03;;
12871;SDS011;6504;53.766;9.626;2024-03-02T13:28:05;7.67;;;6.87;;
12871;SDS011;6504;53.766;9.626;2024-03-02T13:30:35;8.73;;;6.70;;
12871;SDS011;6504;53.766;9.626;2024-03-02T13:33:03;9.00;;;6.80;;
12871;SDS011;6504;53.766;9.626;2024-03-02T13:35:32;7.70;;;7.00;;
12871;SDS011;6504;53.766;9.626;2024-03-02T13:38:00;7.53;;;6.27;;
12871;SDS011;6504;53.766;9.626;2024-03-02T13:40:28;9.20;;;5.80;;
12871;SDS011;6504;53.766;9.626;2024-03-02T13:43:01;7.07;;;5.83;;
12871;SDS011;6504;53.766;9.626;2024-03-02T13:45:30;7.07;;;6.00;;
12871;SDS011;6504;53.766;9.626;2024-03-02T13:47:59;8.53;;;5.40;;
12871;SDS011;6504;53.766;9.626;2024-03-02T13:50:28;8.83;;;5.30;;
12871;SDS011;6504;53.766;9.626;2024-03-02T13:52:56;8.70;;;6.27;;
12871;SDS011;6504;53.766;9.626;2024-03-02T13:55:24;6.50;;;5.77;;
12871;SDS011;6504;53.766;9.626;2024-03-02T13:57:52;6.93;;;5.53;;
12871;SDS011;6504;53.766;9.626;2024-03-02T14:00:20;7.77;;;5.60;;
12871;SDS011;6504;53.766;9.626;2024-03-02T14:02:48;6.50;;;5.90;;
12871;SDS011;6504;53.766;9.626;2024-03-02T14:05:18;7.57;;;5.80;;
12871;SDS011;6504;53.766;9.626;2024-03-02T14:07:46;7.40;;;5.50;;
12871;SDS011;6504;53.766;9.626;2024-03-02T14:10:14;7.30;;;6.50;;
12871;SDS011;6504;53.766;9.626;2024-03-02T14:12:43;8.83;;;7.27;;
12871;SDS011;6504;53.766;9.626;2024-03-02T14:15:11;8.30;;;7.40;;
12871;SDS011;6504;53.766;9.626;2024-03-02T14:17:39;7.80;;;7.00;;
12871;SDS011;6504;53.766;9.626;2024-03-02T14:20:07;8.33;;;7.07;;
12871;SDS011;6504;53.766;9.626;2024-03-02T14:22:39;8.17;;;7.17;;
12871;SDS011;6504;53.766;9.626;2024-03-02T14:25:07;8.67;;;7.20;;
12871;SDS011;6504;53.766;9.626;2024-03-02T14:27:36;8.23;;;7.33;;
12871;SDS011;6504;53.766;9.626;2024-03-02T14:30:09;8.03;;;7.23;;
12871;SDS011;6504;53.766;9.626;2024-03-02T14:32:38;7.20;;;6.50;;
12871;SDS011;6504;53.766;9.626;2024-03-02T14:35:06;9.00;;;7.23;;
12871;SDS011;6504;53.766;9.626;2024-03-02T14:37:39;7.83;;;6.50;;
12871;SDS011;6504;53.766;9.626;2024-03-02T14:40:07;7.57;;;6.10;;
12871;SDS011;6504;53.766;9.626;2024-03-02T14:42:36;8.00;;;7.20;;
12871;SDS011;6504;53.766;9.626;2024-03-02T14:45:05;7.90;;;6.77;;
12871;SDS011;6504;53.766;9.626;2024-03-02T14:47:33;8.00;;;7.03;;
12871;SDS011;6504;53.766;9.626;2024-03-02T14:50:04;6.93;;;6.23;;
12871;SDS011;6504;53.766;9.626;2024-03-02T14:52:34;7.80;;;6.93;;
12871;SDS011;6504;53.766;9.626;2024-03-02T14:55:10;8.40;;;7.20;;
12871;SDS011;6504;53.766;9.626;2024-03-02T14:57:40;8.53;;;6.83;;
12871;SDS011;6504;53.766;9.626;2024-03-02T15:00:10;8.67;;;6.67;;
12871;SDS011;6504;53.766;9.626;2024-03-02T15:02:41;8.23;;;7.20;;
12871;SDS011;6504;53.766;9.626;2024-03-02T15:05:10;7.80;;;6.93;;
12871;SDS011;6504;53.766;9.626;2024-03-02T15:07:40;7.73;;;6.40;;
12871;SDS011;6504;53.766;9.626;2024-03-02T15:10:12;7.93;;;7.13;;
12871;SDS011;6504;53.766;9.626;2024-03-02T15:12:42;8.27;;;7.17;;
12871;SDS011;6504;53.766;9.626;2024-03-02T15:15:17;8.63;;;7.73;;
12871;SDS011;6504;53.766;9.626;2024-03-02T15:17:47;8.03;;;7.23;;
12871;SDS011;6504;53.766;9.626;2024-03-02T15:20:21;7.97;;;7.17;;
12871;SDS011;6504;53.766;9.626;2024-03-02T15:22:53;9.03;;;7.43;;
12871;SDS011;6504;53.766;9.626;2024-03-02T15:25:25;9.07;;;8.17;;
12871;SDS011;6504;53.766;9.626;2024-03-02T15:27:55;9.63;;;7.33;;
12871;SDS011;6504;53.766;9.626;2024-03-02T15:30:34;8.50;;;7.60;;
12871;SDS011;6504;53.766;9.626;2024-03-02T15:33:04;9.07;;;8.00;;
12871;SDS011;6504;53.766;9.626;2024-03-02T15:35:34;10.83;;;8.37;;
12871;SDS011;6504;53.766;9.626;2024-03-02T15:38:04;9.00;;;8.07;;
12871;SDS011;6504;53.766;9.626;2024-03-02T15:40:55;10.00;;;8.43;;
12871;SDS011;6504;53.766;9.626;2024-03-02T15:43:26;10.07;;;8.80;;
12871;SDS011;6504;53.766;9.626;2024-03-02T15:45:58;9.43;;;8.23;;
12871;SDS011;6504;53.766;9.626;2024-03-02T15:48:28;9.83;;;8.83;;
12871;SDS011;6504;53.766;9.626;2024-03-02T15:50:59;9.43;;;8.50;;
12871;SDS011;6504;53.766;9.626;2024-03-02T15:53:33;8.70;;;7.93;;
12871;SDS011;6504;53.766;9.626;2024-03-02T15:56:05;9.83;;;8.80;;
12871;SDS011;6504;53.766;9.626;2024-03-02T15:58:40;9.20;;;8.20;;
12871;SDS011;6504;53.766;9.626;2024-03-02T16:01:10;9.23;;;8.27;;
12871;SDS011;6504;53.766;9.626;2024-03-02T16:03:40;9.50;;;8.30;;
12871;SDS011;6504;53.766;9.626;2024-03-02T16:06:10;9.00;;;8.10;;
12871;SDS011;6504;53.766;9.626;2024-03-02T16:08:40;9.23;;;8.20;;
12871;SDS011;6504;53.766;9.626;2024-03-02T16:11:11;8.50;;;7.60;;
12871;SDS011;6504;53.766;9.626;2024-03-02T16:13:44;9.83;;;7.57;;
12871;SDS011;6504;53.766;9.626;2024-03-02T16:16:16;8.80;;;7.90;;
12871;SDS011;6504;53.766;9.626;2024-03-02T16:18:45;8.47;;;6.80;;
12871;SDS011;6504;53.766;9.626;2024-03-02T16:21:15;7.77;;;6.97;;
12871;SDS011;6504;53.766;9.626;2024-03-02T16:23:53;10.17;;;7.73;;
12871;SDS011;6504;53.766;9.626;2024-03-02T16:26:25;8.37;;;7.03;;
12871;SDS011;6504;53.766;9.626;2024-03-02T16:28:54;7.80;;;7.00;;
12871;SDS011;6504;53.766;9.626;2024-03-02T16:31:26;8.13;;;6.80;;
12871;SDS011;6504;53.766;9.626;2024-03-02T16:33:56;9.50;;;7.70;;
12871;SDS011;6504;53.766;9.626;2024-03-02T16:36:26;8.80;;;7.83;;
12871;SDS011;6504;53.766;9.626;2024-03-02T16:38:59;8.80;;;7.90;;
12871;SDS011;6504;53.766;9.626;2024-03-02T16:41:35;10.03;;;8.97;;
12871;SDS011;6504;53.766;9.626;2024-03-02T16:44:11;10.77;;;9.47;;
12871;SDS011;6504;53.766;9.626;2024-03-02T16:46:40;12.27;;;9.50;;
12871;SDS011;6504;53.766;9.626;2024-03-02T16:49:09;11.63;;;9.80;;
12871;SDS011;6504;53.766;9.626;2024-03-02T16:51:40;11.30;;;9.43;;
12871;SDS011;6504;53.766;9.626;2024-03-02T16:54:12;11.00;;;9.73;;
12871;SDS011;6504;53.766;9.626;2024-03-02T16:56:44;12.93;;;10.57;;
12871;SDS011;6504;53.766;9.626;2024-03-02T16:59:16;12.93;;;10.57;;
12871;SDS011;6504;53.766;9.626;2024-03-02T17:01:46;13.47;;;11.30;;
12871;SDS011;6504;53.766;9.626;2024-03-02T17:04:15;12.60;;;10.67;;
12871;SDS011;6504;53.766;9.626;2024-03-02T17:06:50;12.17;;;10.87;;
12871;SDS011;6504;53.766;9.626;2024-03-02T17:09:22;11.63;;;10.43;;
12871;SDS011;6504;53.766;9.626;2024-03-02T17:11:57;11.90;;;10.67;;
12871;SDS011;6504;53.766;9.626;2024-03-02T17:14:26;13.43;;;11.03;;
12871;SDS011;6504;53.766;9.626;2024-03-02T17:16:58;13.50;;;11.30;;
12871;SDS011;6504;53.766;9.626;2024-03-02T17:19:27;12.17;;;10.87;;
12871;SDS011;6504;53.766;9.626;2024-03-02T17:22:00;12.43;;;10.97;;
12871;SDS011;6504;53.766;9.626;2024-03-02T17:24:31;12.83;;;10.47;;
12871;SDS011;6504;53.766;9.626;2024-03-02T17:27:03;13.07;;;10.20;;
12871;SDS011;6504;53.766;9.626;2024-03-02T17:29:32;12.27;;;10.93;;
12871;SDS011;6504;53.766;9.626;2024-03-02T17:32:01;12.50;;;11.07;;
12871;SDS011;6504;53.766;9.626;2024-03-02T17:34:31;14.47;;;10.80;;
12871;SDS011;6504;53.766;9.626;2024-03-02T17:37:00;11.40;;;10.20;;
12871;SDS011;6504;53.766;9.626;2024-03-02T17:39:33;11.90;;;10.70;;
12871;SDS011;6504;53.766;9.626;2024-03-02T17:42:06;12.90;;;10.90;;
12871;SDS011;6504;53.766;9.626;2024-03-02T17:44:38;11.93;;;10.50;;
12871;SDS011;6504;53.766;9.626;2024-03-02T17:47:08;13.23;;;10.80;;
12871;SDS011;6504;53.766;9.626;2024-03-02T17:49:40;12.83;;;10.33;;
12871;SDS011;6504;53.766;9.626;2024-03-02T17:52:09;11.17;;;9.83;;
12871;SDS011;6504;53.766;9.626;2024-03-02T17:54:39;10.87;;;9.73;;
12871;SDS011;6504;53.766;9.626;2024-03-02T17:57:14;12.10;;;10.30;;
12871;SDS011;6504;53.766;9.626;2024-03-02T17:59:49;12.50;;;10.00;;
12871;SDS011;6504;53.766;9.626;2024-03-02T18:02:19;12.60;;;10.57;;
12871;SDS011;6504;53.766;9.626;2024-03-02T18:04:51;13.27;;;11.00;;
12871;SDS011;6504;53.766;9.626;2024-03-02T18:07:23;11.30;;;10.20;;
12871;SDS011;6504;53.766;9.626;2024-03-02T18:09:55;13.20;;;10.30;;
12871;SDS011;6504;53.766;9.626;2024-03-02T18:12:31;13.30;;;10.83;;
12871;SDS011;6504;53.766;9.626;2024-03-02T18:15:01;12.20;;;9.93;;
12871;SDS011;6504;53.766;9.626;2024-03-02T18:17:32;11.00;;;9.83;;
12871;SDS011;6504;53.766;9.626;2024-03-02T18:20:02;12.90;;;10.80;;
12871;SDS011;6504;53.766;9.626;2024-03-02T18:22:32;13.40;;;11.20;;
12871;SDS011;6504;53.766;9.626;2024-03-02T18:25:02;11.67;;;10.20;;
12871;SDS011;6504;53.766;9.626;2024-03-02T18:27:36;13.50;;;12.03;;
12871;SDS011;6504;53.766;9.626;2024-03-02T18:30:06;13.13;;;11.73;;
12871;SDS011;6504;53.766;9.626;2024-03-02T18:32:42;12.47;;;11.17;;
12871;SDS011;6504;53.766;9.626;2024-03-02T18:35:15;13.17;;;10.70;;
12871;SDS011;6504;53.766;9.626;2024-03-02T18:37:45;12.30;;;11.00;;
12871;SDS011;6504;53.766;9.626;2024-03-02T18:40:17;12.20;;;10.67;;
12871;SDS011;6504;53.766;9.626;2024-03-02T18:42:53;12.63;;;11.33;;
12871;SDS011;6504;53.766;9.626;2024-03-02T18:45:22;15.03;;;12.43;;
12871;SDS011;6504;53.766;9.626;2024-03-02T18:47:52;14.03;;;12.37;;
12871;SDS011;6504;53.766;9.626;2024-03-02T18:50:24;13.73;;;12.03;;
12871;SDS011;6504;53.766;9.626;2024-03-02T18:52:53;13.57;;;11.60;;
12871;SDS011;6504;53.766;9.626;2024-03-02T18:55:23;15.23;;;12.93;;
12871;SDS011;6504;53.766;9.626;2024-03-02T18:57:54;15.50;;;13.53;;
12871;SDS011;6504;53.766;9.626;2024-03-02T19:00:24;16.43;;;13.17;;
12871;SDS011;6504;53.766;9.626;2024-03-02T19:02:54;15.17;;;12.90;;
12871;SDS011;6504;53.766;9.626;2024-03-02T19:05:24;14.63;;;12.93;;
12871;SDS011;6504;53.766;9.626;2024-03-02T19:07:56;13.07;;;11.80;;
12871;SDS011;6504;53.766;9.626;2024-03-02T19:10:26;13.23;;;11.87;;
12871;SDS011;6504;53.766;9.626;2024-03-02T19:12:57;14.17;;;12.30;;
12871;SDS011;6504;53.766;9.626;2024-03-02T19:15:29;14.97;;;12.97;;
12871;SDS011;6504;53.766;9.626;2024-03-02T19:17:59;14.03;;;12.50;;
12871;SDS011;6504;53.766;9.626;2024-03-02T19:20:28;13.90;;;12.50;;
12871;SDS011;6504;53.766;9.626;2024-03-02T19:23:00;13.70;;;12.13;;
12871;SDS011;6504;53.766;9.626;2024-03-02T19:25:30;15.30;;;13.63;;
12871;SDS011;6504;53.766;9.626;2024-03-02T19:28:01;15.53;;;13.40;;
12871;SDS011;6504;53.766;9.626;2024-03-02T19:30:33;14.87;;;13.27;;
12871;SDS011;6504;53.766;9.626;2024-03-02T19:33:10;14.00;;;11.80;;
12871;SDS011;6504;53.766;9.626;2024-03-02T19:35:44;15.37;;;12.37;;
12871;SDS011;6504;53.766;9.626;2024-03-02T19:38:17;13.57;;;12.13;;
12871;SDS011;6504;53.766;9.626;2024-03-02T19:40:49;14.93;;;13.13;;
12871;SDS011;6504;53.766;9.626;2024-03-02T19:43:20;15.50;;;13.73;;
12871;SDS011;6504;53.766;9.626;2024-03-02T19:45:50;15.80;;;14.17;;
12871;SDS011;6504;53.766;9.626;2024-03-02T19:48:19;20.30;;;16.00;;
12871;SDS011;6504;53.766;9.626;2024-03-02T19:50:50;16.73;;;15.03;;
12871;SDS011;6504;53.766;9.626;2024-03-02T19:53:22;17.53;;;15.07;;
12871;SDS011;6504;53.766;9.626;2024-03-02T19:55:58;17.57;;;14.83;;
12871;SDS011;6504;53.766;9.626;2024-03-02T19:58:29;16.50;;;14.80;;
12871;SDS011;6504;53.766;9.626;2024-03-02T20:00:59;18.00;;;15.93;;
12871;SDS011;6504;53.766;9.626;2024-03-02T20:03:36;19.90;;;16.47;;
12871;SDS011;6504;53.766;9.626;2024-03-02T20:06:09;18.80;;;16.83;;
12871;SDS011;6504;53.766;9.626;2024-03-02T20:08:41;18.17;;;16.17;;
12871;SDS011;6504;53.766;9.626;2024-03-02T20:11:18;19.03;;;17.03;;
12871;SDS011;6504;53.766;9.626;2024-03-02T20:13:52;21.73;;;17.33;;
12871;SDS011;6504;53.766;9.626;2024-03-02T20:16:25;19.00;;;17.00;;
12871;SDS011;6504;53.766;9.626;2024-03-02T20:18:59;18.53;;;16.53;;
12871;SDS011;6504;53.766;9.626;2024-03-02T20:21:32;19.30;;;17.20;;
12871;SDS011;6504;53.766;9.626;2024-03-02T20:24:03;20.73;;;17.47;;
12871;SDS011;6504;53.766;9.626;2024-03-02T20:26:33;21.47;;;18.43;;
12871;SDS011;6504;53.766;9.626;2024-03-02T20:29:07;20.37;;;18.20;;
12871;SDS011;6504;53.766;9.626;2024-03-02T20:31:36;21.77;;;18.80;;
12871;SDS011;6504;53.766;9.626;2024-03-02T20:34:11;22.17;;;18.07;;
12871;SDS011;6504;53.766;9.626;2024-03-02T20:36:43;21.07;;;18.70;;
12871;SDS011;6504;53.766;9.626;2024-03-02T20:39:14;23.17;;;18.77;;
12871;SDS011;6504;53.766;9.626;2024-03-02T20:41:48;20.30;;;17.83;;
12871;SDS011;6504;53.766;9.626;2024-03-02T20:44:20;20.97;;;17.70;;
12871;SDS011;6504;53.766;9.626;2024-03-02T20:46:52;22.47;;;18.43;;
12871;SDS011;6504;53.766;9.626;2024-03-02T20:49:26;21.57;;;18.13;;
12871;SDS011;6504;53.766;9.626;2024-03-02T20:51:58;23.17;;;19.37;;
12871;SDS011;6504;53.766;9.626;2024-03-02T20:54:29;20.23;;;17.40;;
12871;SDS011;6504;53.766;9.626;2024-03-02T20:56:59;20.90;;;18.00;;
12871;SDS011;6504;53.766;9.626;2024-03-02T20:59:34;22.67;;;19.07;;
12871;SDS011;6504;53.766;9.626;2024-03-02T21:02:04;21.97;;;19.40;;
12871;SDS011;6504;53.766;9.626;2024-03-02T21:04:34;21.53;;;19.00;;
12871;SDS011;6504;53.766;9.626;2024-03-02T21:07:05;22.87;;;18.63;;
12871;SDS011;6504;53.766;9.626;2024-03-02T21:09:39;20.70;;;18.40;;
12871;SDS011;6504;53.766;9.626;2024-03-02T21:12:09;23.93;;;19.70;;
12871;SDS011;6504;53.766;9.626;2024-03-02T21:14:43;20.93;;;18.67;;
12871;SDS011;6504;53.766;9.626;2024-03-02T21:17:14;22.37;;;19.27;;
12871;SDS011;6504;53.766;9.626;2024-03-02T21:19:49;21.87;;;19.40;;
12871;SDS011;6504;53.766;9.626;2024-03-02T21:22:19;22.33;;;18.50;;
12871;SDS011;6504;53.766;9.626;2024-03-02T21:24:51;19.83;;;17.73;;
12871;SDS011;6504;53.766;9.626;2024-03-02T21:27:28;20.67;;;17.63;;
12871;SDS011;6504;53.766;9.626;2024-03-02T21:29:59;21.33;;;18.53;;
12871;SDS011;6504;53.766;9.626;2024-03-02T21:32:28;21.43;;;18.90;;
12871;SDS011;6504;53.766;9.626;2024-03-02T21:34:58;22.07;;;18.90;;
12871;SDS011;6504;53.766;9.626;2024-03-02T21:37:28;19.73;;;17.63;;
12871;SDS011;6504;53.766;9.626;2024-03-02T21:39:58;19.60;;;17.50;;
12871;SDS011;6504;53.766;9.626;2024-03-02T21:42:31;20.87;;;18.67;;
12871;SDS011;6504;53.766;9.626;2024-03-02T21:45:05;19.90;;;17.80;;
12871;SDS011;6504;53.766;9.626;2024-03-02T21:47:36;21.10;;;18.80;;
12871;SDS011;6504;53.766;9.626;2024-03-02T21:50:05;22.03;;;18.63;;
12871;SDS011;6504;53.766;9.626;2024-03-02T21:52:36;21.47;;;18.30;;
12871;SDS011;6504;53.766;9.626;2024-03-02T21:55:06;20.93;;;17.90;;
12871;SDS011;6504;53.766;9.626;2024-03-02T21:57:36;20.33;;;18.10;;
12871;SDS011;6504;53.766;9.626;2024-03-02T22:00:08;20.63;;;18.40;;
12871;SDS011;6504;53.766;9.626;2024-03-02T22:02:40;19.93;;;17.53;;
12871;SDS011;6504;53.766;9.626;2024-03-02T22:05:10;19.93;;;17.70;;
12871;SDS011;6504;53.766;9.626;2024-03-02T22:07:44;20.93;;;18.43;;
12871;SDS011;6504;53.766;9.626;2024-03-02T22:10:26;21.77;;;18.70;;
12871;SDS011;6504;53.766;9.626;2024-03-02T22:12:57;21.03;;;18.53;;
12871;SDS011;6504;53.766;9.626;2024-03-02T22:15:28;21.87;;;19.47;;
12871;SDS011;6504;53.766;9.626;2024-03-02T22:17:58;21.07;;;17.67;;
12871;SDS011;6504;53.766;9.626;2024-03-02T22:20:30;19.60;;;16.97;;
12871;SDS011;6504;53.766;9.626;2024-03-02T22:22:59;19.50;;;17.13;;
12871;SDS011;6504;53.766;9.626;2024-03-02T22:25:28;19.17;;;17.13;;
12871;SDS011;6504;53.766;9.626;2024-03-02T22:27:58;20.03;;;17.50;;
12871;SDS011;6504;53.766;9.626;2024-03-02T22:30:31;19.83;;;17.73;;
12871;SDS011;6504;53.766;9.626;2024-03-02T22:33:06;19.73;;;17.33;;
12871;SDS011;6504;53.766;9.626;2024-03-02T22:35:40;20.63;;;16.97;;
12871;SDS011;6504;53.766;9.626;2024-03-02T22:38:11;18.40;;;16.47;;
12871;SDS011;6504;53.766;9.626;2024-03-02T22:40:49;17.93;;;15.73;;
12871;SDS011;6504;53.766;9.626;2024-03-02T22:43:23;17.97;;;16.10;;
12871;SDS011;6504;53.766;9.626;2024-03-02T22:45:57;19.20;;;17.13;;
12871;SDS011;6504;53.766;9.626;2024-03-02T22:48:30;19.97;;;16.77;;
12871;SDS011;6504;53.766;9.626;2024-03-02T22:51:03;19.17;;;17.10;;
12871;SDS011;6504;53.766;9.626;2024-03-02T22:53:35;20.43;;;17.90;;
12871;SDS011;6504;53.766;9.626;2024-03-02T22:56:09;18.13;;;15.80;;
12871;SDS011;6504;53.766;9.626;2024-03-02T22:58:38;18.20;;;16.33;;
12871;SDS011;6504;53.766;9.626;2024-03-02T23:01:09;18.40;;;16.20;;
12871;SDS011;6504;53.766;9.626;2024-03-02T23:03:39;18.67;;;16.03;;